Terminal Aerodrome Forecast
Issued by NWS Jackson, MS

Home | Current Version | Previous Version | Text Only | Print | Product List | Glossary On
Versions: 1 2 3 4 5 6 7 8 9 10 11 12 13 14
000
FTUS44 KMEG 301700
TAFTUP
TAF
KTUP 301731Z 3018/3118 02004KT P6SM FEW150
     FM311500 36010G15KT P6SM FEW050=

USA.gov is the U.S. government's official web portal to all federal, state and local government web resources and services.